Terminal Aerodrome Forecast
Issued by NWS Chicago, IL

Home | Current Version | Previous Version | Text Only | Print | Product List | Glossary On
Versions: 1 2 3 4 5 6 7 8 9 10 11 12 13 14 15 16 17 18 19 20 21 22 23 24 25 26 27 28 29 30
003
FTUS43 KLOT 010155 AAA
TAFRFD
TAF AMD
KRFD 010155Z 0102/0124 06013G20KT 4SM -SHRA BR OVC007
      TEMPO 0103/0105 2SM TSRA BR OVC006CB
     FM010500 16010KT P6SM SCT008 OVC015
     FM011500 20019G32KT P6SM VCSH OVC015
      TEMPO 0118/0122 5SM -SHRA OVC015=

USA.gov is the U.S. government's official web portal to all federal, state and local government web resources and services.